Time;durP1;ratioP1;P1;durP2;ratioP2;P2;SDS_P1;SDS_P2;PMS_P1;PMS_P2;Temp;Humidity;BMP_temperature;BMP_pressure;BME280_temperature;BME280_humidity;BME280_pressure;Samples;Min_cycle;Max_cycle;Signal;HPM_P1;HPM_P2
2021/12/17 00:00:45;;;;;;;17.83;8.90;;;8.80;99.90;;;;;;5092597;28;20192;-72
2021/12/17 00:03:18;;;;;;;5.20;4.70;;;8.80;99.90;;;;;;5092975;28;20255;-73
2021/12/17 00:08:16;;;;;;;8.50;7.43;;;8.70;99.90;;;;;;5094197;28;20208;-73
2021/12/17 00:10:44;;;;;;;10.10;7.20;;;8.70;99.90;;;;;;5093013;28;20199;-73
2021/12/17 00:13:14;;;;;;;7.97;5.33;;;8.70;99.90;;;;;;5075687;28;20176;-73
2021/12/17 00:15:40;;;;;;;12.73;7.33;;;8.80;99.90;;;;;;5093533;28;20184;-73
2021/12/17 00:18:17;;;;;;;19.57;8.73;;;8.80;99.90;;;;;;5075279;28;20276;-74
2021/12/17 00:53:26;;;;;;;8.30;7.70;;;8.70;99.90;;;;;;5096400;28;20248;-73
2021/12/17 00:55:51;;;;;;;7.77;3.83;;;8.70;99.90;;;;;;5095138;28;20255;-73
2021/12/17 00:58:17;;;;;;;13.77;8.10;;;8.70;99.90;;;;;;5077329;28;20290;-71
2021/12/17 01:00:43;;;;;;;3.93;3.57;;;8.80;99.90;;;;;;5077626;28;20195;-72
2021/12/17 01:03:09;;;;;;;8.67;3.77;;;8.80;99.90;;;;;;5095485;28;20662;-71
2021/12/17 01:05:35;;;;;;;6.33;5.83;;;8.70;99.90;;;;;;5094782;28;20168;-72
2021/12/17 01:08:03;;;;;;;6.20;5.60;;;8.70;99.90;;;;;;5095328;28;20272;-73
2021/12/17 01:10:42;;;;;;;9.27;7.17;;;8.80;99.90;;;;;;5077245;28;20207;-73
2021/12/17 01:13:08;;;;;;;13.87;6.33;;;8.80;99.90;;;;;;5095684;28;20186;-72
2021/12/17 01:15:35;;;;;;;6.07;4.67;;;8.80;99.90;;;;;;5077101;28;20431;-72
2021/12/17 01:18:08;;;;;;;9.00;5.33;;;8.80;99.90;;;;;;5095303;28;20203;-73
2021/12/17 01:35:20;;;;;;;17.47;9.97;;;8.80;99.90;;;;;;5095059;28;20522;-70
2021/12/17 01:36:36;;;;;;;10.40;6.27;;;8.80;99.90;;;;;;5094373;28;20409;-72
2021/12/17 01:44:22;;;;;;;8.30;5.43;;;8.80;99.90;;;;;;5093552;28;20164;-73
2021/12/17 01:46:51;;;;;;;13.87;6.30;;;8.80;99.90;;;;;;5093538;28;20639;-72
2021/12/17 02:00:22;;;;;;;6.27;4.13;;;8.70;99.90;;;;;;5094421;28;20237;-72
2021/12/17 02:02:52;;;;;;;21.33;10.80;;;8.60;99.90;;;;;;5094648;28;20233;-72
2021/12/17 02:05:17;;;;;;;33.37;6.07;;;8.60;99.90;;;;;;5093996;28;20176;-72
2021/12/17 02:07:45;;;;;;;9.87;6.97;;;8.60;99.90;;;;;;5093113;28;20176;-71
2021/12/17 02:10:45;;;;;;;9.10;4.63;;;8.70;99.90;;;;;;5094218;28;20670;-72
2021/12/17 02:31:33;;;;;;;4.27;4.00;;;8.70;99.90;;;;;;5093571;28;20192;-72
2021/12/17 02:34:12;;;;;;;10.73;6.80;;;8.70;99.90;;;;;;5092877;28;20258;-72
2021/12/17 02:36:39;;;;;;;5.23;4.80;;;8.80;99.90;;;;;;5095079;28;20195;-72
2021/12/17 02:47:11;;;;;;;14.07;5.23;;;8.70;99.90;;;;;;5092831;28;20202;-72
2021/12/17 02:49:41;;;;;;;4.57;4.13;;;8.70;99.90;;;;;;5093368;28;20642;-73
2021/12/17 02:52:07;;;;;;;9.90;6.13;;;8.70;99.90;;;;;;5075051;28;20234;-71
2021/12/17 02:54:34;;;;;;;12.67;7.33;;;8.70;99.90;;;;;;5075402;28;20661;-72
2021/12/17 02:57:00;;;;;;;16.73;9.67;;;8.70;99.90;;;;;;5093318;28;20563;-72
2021/12/17 02:59:26;;;;;;;8.17;6.43;;;8.60;99.90;;;;;;5094016;28;20262;-72
2021/12/17 03:01:52;;;;;;;7.00;6.27;;;8.60;99.90;;;;;;5093653;28;20678;-73
2021/12/17 03:04:19;;;;;;;14.43;6.80;;;8.60;99.90;;;;;;5094017;28;20193;-72
2021/12/17 03:06:46;;;;;;;4.53;4.13;;;8.60;99.90;;;;;;5093579;28;20183;-72
2021/12/17 03:09:12;;;;;;;18.97;10.73;;;8.60;99.90;;;;;;5093843;28;20186;-71
2021/12/17 03:11:38;;;;;;;12.00;9.93;;;8.60;99.90;;;;;;5093908;28;20206;-72
2021/12/17 03:14:04;;;;;;;17.23;6.43;;;8.60;99.90;;;;;;5094277;28;20179;-72
2021/12/17 03:16:36;;;;;;;9.97;6.07;;;8.70;99.90;;;;;;5093545;28;20195;-73
2021/12/17 03:24:18;;;;;;;9.10;6.57;;;8.50;99.90;;;;;;5094855;28;20199;-72
2021/12/17 03:26:45;;;;;;;6.10;5.60;;;8.50;99.90;;;;;;5093674;28;20176;-72
2021/12/17 03:29:11;;;;;;;24.13;9.00;;;8.50;99.90;;;;;;5075671;28;20243;-71
2021/12/17 03:31:37;;;;;;;6.00;5.47;;;8.50;99.90;;;;;;5093327;28;20212;-71
2021/12/17 03:34:21;;;;;;;5.90;5.40;;;8.50;99.90;;;;;;5093693;28;20265;-72
2021/12/17 03:36:53;;;;;;;12.07;8.13;;;8.50;99.90;;;;;;5075099;28;20278;-72
2021/12/17 03:39:27;;;;;;;10.17;8.07;;;8.60;99.90;;;;;;5093317;28;20167;-71
2021/12/17 03:41:53;;;;;;;9.00;8.20;;;8.60;99.90;;;;;;5122219;22;20770;-71
2021/12/17 03:44:20;;;;;;;8.87;8.07;;;8.50;99.90;;;;;;5052172;28;20172;-72
2021/12/17 03:46:48;;;;;;;10.60;7.73;;;8.50;99.90;;;;;;5056642;28;20185;-71
2021/12/17 03:49:17;;;;;;;9.50;7.63;;;8.50;99.90;;;;;;5051619;28;20199;-72
2021/12/17 03:52:04;;;;;;;7.53;5.20;;;8.50;99.90;;;;;;5060688;28;20927;-71
2021/12/17 03:54:32;;;;;;;11.53;7.77;;;8.50;99.90;;;;;;5072252;28;20187;-73
2021/12/17 03:56:58;;;;;;;7.17;4.87;;;8.50;99.90;;;;;;5053830;28;20198;-72
2021/12/17 03:59:24;;;;;;;18.07;8.23;;;8.60;99.90;;;;;;5071989;28;20309;-72
2021/12/17 04:01:50;;;;;;;6.40;5.80;;;8.60;99.90;;;;;;5059853;28;20224;-72
2021/12/17 04:04:15;;;;;;;3.57;3.33;;;8.60;99.90;;;;;;5078597;28;20212;-72
2021/12/17 04:06:41;;;;;;;9.10;7.37;;;8.70;99.90;;;;;;5074623;28;20176;-73
2021/12/17 04:09:08;;;;;;;12.23;6.77;;;8.60;99.90;;;;;;5078634;28;20184;-73
2021/12/17 04:11:34;;;;;;;5.83;5.33;;;8.60;99.90;;;;;;5079607;28;20215;-73
2021/12/17 04:14:00;;;;;;;8.07;7.27;;;8.60;99.90;;;;;;5077812;28;20297;-72
2021/12/17 04:16:29;;;;;;;9.33;6.17;;;8.60;99.90;;;;;;5076677;28;20277;-72
2021/12/17 04:18:55;;;;;;;8.80;6.60;;;8.60;99.90;;;;;;5076860;28;20256;-72
2021/12/17 04:21:21;;;;;;;8.43;7.40;;;8.60;99.90;;;;;;5077843;28;20212;-72
2021/12/17 04:23:49;;;;;;;9.40;7.97;;;8.60;99.90;;;;;;5077073;28;20180;-72
2021/12/17 04:26:16;;;;;;;8.00;6.80;;;8.60;99.90;;;;;;5076560;28;20187;-72
2021/12/17 04:28:46;;;;;;;15.30;6.53;;;8.60;99.90;;;;;;5076755;28;20176;-72
2021/12/17 04:31:13;;;;;;;8.13;5.73;;;8.60;99.90;;;;;;5059669;28;20193;-73
2021/12/17 04:33:40;;;;;;;7.70;7.00;;;8.70;99.90;;;;;;5076787;28;20173;-72
2021/12/17 04:36:07;;;;;;;13.17;7.03;;;8.70;99.90;;;;;;5076490;28;20208;-73
2021/12/17 04:38:33;;;;;;;5.70;4.63;;;8.60;99.90;;;;;;5076215;28;20177;-73
2021/12/17 04:41:37;;;;;;;3.30;2.40;;;8.70;99.90;;;;;;5055781;28;20194;-73
2021/12/17 04:57:31;;;;;;;7.03;4.37;;;8.60;99.90;;;;;;5076084;28;20722;-73
2021/12/17 05:00:02;;;;;;;8.50;3.90;;;8.70;99.90;;;;;;5075723;28;20183;-73
2021/12/17 05:02:28;;;;;;;6.97;3.97;;;8.70;99.90;;;;;;5058221;28;20219;-73
2021/12/17 05:04:54;;;;;;;6.13;4.53;;;8.70;99.90;;;;;;5057594;28;20181;-73
2021/12/17 05:07:23;;;;;;;9.07;3.60;;;8.70;99.90;;;;;;5075248;28;20184;-73
2021/12/17 05:09:58;;;;;;;5.00;3.90;;;8.70;99.90;;;;;;5075491;28;20644;-72
2021/12/17 05:20:46;;;;;;;5.40;4.13;;;8.80;99.90;;;;;;5074701;28;20229;-71
2021/12/17 05:23:11;;;;;;;13.53;6.67;;;8.80;99.90;;;;;;5075349;28;20172;-71
2021/12/17 05:25:37;;;;;;;11.57;5.97;;;8.70;99.90;;;;;;5074569;28;20173;-71
2021/12/17 05:28:03;;;;;;;5.00;3.30;;;8.60;99.90;;;;;;5074896;28;20184;-72
2021/12/17 05:30:30;;;;;;;7.73;5.50;;;8.60;99.90;;;;;;5074556;28;20266;-73
2021/12/17 05:32:56;;;;;;;3.93;3.73;;;8.50;99.90;;;;;;5074306;28;20192;-74
2021/12/17 05:35:23;;;;;;;4.50;4.20;;;8.50;99.90;;;;;;5056414;28;20211;-72
2021/12/17 05:37:48;;;;;;;3.93;3.67;;;8.60;99.90;;;;;;5074503;28;20263;-72
2021/12/17 05:40:14;;;;;;;7.37;3.83;;;8.60;99.90;;;;;;5060363;28;20180;-72
2021/12/17 05:42:41;;;;;;;4.13;3.83;;;8.60;99.90;;;;;;5056094;28;20216;-70
2021/12/17 05:45:20;;;;;;;9.10;5.30;;;8.60;99.90;;;;;;5055665;28;20196;-72
2021/12/17 05:47:46;;;;;;;10.43;4.40;;;8.60;99.90;;;;;;5062908;28;20291;-72
2021/12/17 05:50:12;;;;;;;8.03;5.20;;;8.60;99.90;;;;;;5056068;28;20208;-72
2021/12/17 05:52:37;;;;;;;7.13;3.67;;;8.60;99.90;;;;;;5030356;28;20700;-71
2021/12/17 05:55:03;;;;;;;5.40;4.07;;;8.60;99.90;;;;;;5072382;28;20188;-73
2021/12/17 05:57:29;;;;;;;3.03;2.73;;;8.60;99.90;;;;;;5055030;28;20680;-74
2021/12/17 05:59:54;;;;;;;8.30;7.37;;;8.70;99.90;;;;;;5073047;28;20187;-74
2021/12/17 06:02:20;;;;;;;7.67;6.97;;;8.70;99.90;;;;;;5072607;28;20192;-73
2021/12/17 06:04:46;;;;;;;9.27;5.93;;;8.70;99.90;;;;;;5073332;28;20175;-73
2021/12/17 06:07:12;;;;;;;8.70;7.80;;;8.70;99.90;;;;;;5072530;28;20191;-73
2021/12/17 06:09:38;;;;;;;19.03;7.37;;;8.70;99.90;;;;;;5073007;28;20180;-74
2021/12/17 06:12:04;;;;;;;6.70;5.30;;;8.70;99.90;;;;;;5073742;28;20207;-73
2021/12/17 06:14:30;;;;;;;4.37;4.13;;;8.70;99.90;;;;;;5073090;28;20669;-71
2021/12/17 06:16:57;;;;;;;4.67;4.23;;;8.70;99.90;;;;;;5072942;28;20188;-72
2021/12/17 06:19:22;;;;;;;8.73;3.63;;;8.70;99.90;;;;;;5072925;28;20191;-73
2021/12/17 06:21:48;;;;;;;16.27;9.40;;;8.70;99.90;;;;;;5073441;28;20197;-73
2021/12/17 06:24:14;;;;;;;10.37;5.60;;;8.70;99.90;;;;;;5073597;28;20195;-73
2021/12/17 06:26:40;;;;;;;9.20;4.43;;;8.70;99.90;;;;;;5072627;28;20187;-71
2021/12/17 06:29:06;;;;;;;12.30;7.07;;;8.70;99.90;;;;;;5072805;28;20181;-73
2021/12/17 06:31:31;;;;;;;6.33;4.27;;;8.70;99.90;;;;;;5072151;28;20710;-72
2021/12/17 06:33:57;;;;;;;14.67;6.37;;;8.70;99.90;;;;;;5072180;28;20579;-73
2021/12/17 06:36:23;;;;;;;8.13;7.43;;;8.70;99.90;;;;;;5071813;28;20189;-72
2021/12/17 06:38:48;;;;;;;8.63;6.90;;;8.70;99.90;;;;;;5052135;28;20180;-70
2021/12/17 06:41:14;;;;;;;4.83;4.30;;;8.70;99.90;;;;;;5053001;28;20216;-72
2021/12/17 06:43:42;;;;;;;8.17;7.33;;;8.60;99.90;;;;;;5070357;28;20188;-72
2021/12/17 06:49:18;;;;;;;10.43;6.93;;;8.60;99.90;;;;;;5047710;28;20183;-72
2021/12/17 06:59:40;;;;;;;16.17;8.97;;;8.60;99.90;;;;;;5072821;28;20195;-72
2021/12/17 07:10:37;;;;;;;7.57;5.20;;;8.50;99.90;;;;;;5072895;28;20238;-72
2021/12/17 07:33:58;;;;;;;13.20;7.87;;;8.50;99.90;;;;;;5073151;28;20177;-72
2021/12/17 07:36:24;;;;;;;21.27;4.70;;;8.50;99.90;;;;;;5054262;28;20184;-72
2021/12/17 07:38:50;;;;;;;11.87;8.73;;;8.50;99.90;;;;;;5052270;28;20267;-72
2021/12/17 07:41:17;;;;;;;14.47;9.27;;;8.60;99.90;;;;;;5052462;28;20216;-73
2021/12/17 07:43:53;;;;;;;7.73;6.13;;;8.60;99.90;;;;;;5070536;28;20265;-72
2021/12/17 07:46:20;;;;;;;8.90;7.77;;;8.60;99.90;;;;;;5054550;28;20176;-73
2021/12/17 07:48:45;;;;;;;12.50;5.63;;;8.60;99.90;;;;;;5071841;28;20270;-73
2021/12/17 07:51:13;;;;;;;10.00;9.13;;;8.60;99.90;;;;;;5071811;28;20243;-72
2021/12/17 07:53:39;;;;;;;7.17;5.13;;;8.60;99.90;;;;;;5053847;28;20215;-72
2021/12/17 07:56:07;;;;;;;13.40;6.70;;;8.60;99.90;;;;;;5071798;28;20173;-72
2021/12/17 07:58:33;;;;;;;8.73;6.27;;;8.60;99.90;;;;;;5072038;28;20222;-73
2021/12/17 08:00:59;;;;;;;8.50;7.73;;;8.60;99.90;;;;;;5072115;28;20282;-73
2021/12/17 08:03:26;;;;;;;21.87;5.57;;;8.60;99.90;;;;;;5072288;28;20699;-72
2021/12/17 08:05:52;;;;;;;7.60;6.27;;;8.70;99.90;;;;;;5072196;28;20665;-73
2021/12/17 08:08:18;;;;;;;20.30;7.13;;;8.70;99.90;;;;;;5072269;28;20558;-71
2021/12/17 08:10:47;;;;;;;15.27;8.67;;;8.60;99.90;;;;;;5053834;28;20188;-72
2021/12/17 08:13:22;;;;;;;25.23;6.43;;;8.60;99.90;;;;;;5053681;28;20184;-73
2021/12/17 08:26:24;;;;;;;5.73;5.03;;;8.70;99.90;;;;;;5072217;28;20231;-74
2021/12/17 08:28:54;;;;;;;11.00;4.43;;;8.70;99.90;;;;;;5072924;28;20233;-72
2021/12/17 08:31:20;;;;;;;10.10;5.47;;;8.70;99.90;;;;;;5073825;28;20666;-73
2021/12/17 08:33:46;;;;;;;4.37;3.67;;;8.70;99.90;;;;;;5071707;28;20195;-72
2021/12/17 08:36:12;;;;;;;5.97;5.07;;;8.80;99.90;;;;;;5071333;28;20176;-72
2021/12/17 08:38:37;;;;;;;9.40;8.40;;;8.80;99.90;;;;;;5069984;28;20215;-72
2021/12/17 08:41:04;;;;;;;11.77;8.20;;;8.80;99.90;;;;;;5051562;28;20209;-73
2021/12/17 08:43:30;;;;;;;12.20;6.73;;;8.80;99.90;;;;;;5068849;28;20694;-73
2021/12/17 08:45:56;;;;;;;26.13;7.60;;;8.80;99.90;;;;;;5071535;28;20180;-73
2021/12/17 08:48:21;;;;;;;10.10;5.47;;;8.70;99.90;;;;;;5069897;28;20188;-72
2021/12/17 08:50:47;;;;;;;10.70;7.33;;;8.70;99.90;;;;;;5070971;28;20202;-72
2021/12/17 08:53:13;;;;;;;8.07;4.43;;;8.70;99.90;;;;;;5074476;28;20655;-73
2021/12/17 08:55:38;;;;;;;19.37;7.67;;;8.70;99.90;;;;;;5058533;28;20651;-73
2021/12/17 08:58:04;;;;;;;12.53;7.60;;;8.70;99.90;;;;;;5074808;28;20623;-72
2021/12/17 09:00:30;;;;;;;14.17;8.47;;;8.70;99.90;;;;;;5056887;28;20205;-72
2021/12/17 09:02:59;;;;;;;18.90;8.80;;;8.80;99.90;;;;;;5074623;28;20204;-73
2021/12/17 09:05:26;;;;;;;12.67;9.57;;;8.80;99.90;;;;;;5074872;28;20177;-71
2021/12/17 09:07:52;;;;;;;14.97;7.43;;;8.80;99.90;;;;;;5056038;28;20188;-72
2021/12/17 09:10:21;;;;;;;13.07;6.60;;;8.80;99.90;;;;;;5074461;28;20176;-71
2021/12/17 09:12:50;;;;;;;14.07;7.70;;;8.80;99.90;;;;;;5045559;28;20204;-72
2021/12/17 09:15:15;;;;;;;4.27;3.90;;;8.80;99.90;;;;;;5064471;28;20293;-72
2021/12/17 09:17:41;;;;;;;6.30;5.53;;;8.80;99.90;;;;;;5073703;28;20230;-72
2021/12/17 09:20:07;;;;;;;13.03;6.40;;;8.80;99.90;;;;;;5074004;28;20640;-72
2021/12/17 09:22:34;;;;;;;11.97;7.47;;;8.80;99.90;;;;;;5073875;28;20391;-72
2021/12/17 09:24:59;;;;;;;10.23;7.23;;;8.80;99.90;;;;;;5074183;28;20533;-71
2021/12/17 09:27:25;;;;;;;6.83;5.67;;;8.80;99.90;;;;;;5055766;28;20207;-72
2021/12/17 09:29:51;;;;;;;18.00;8.57;;;8.80;99.90;;;;;;5073643;28;20181;-71
2021/12/17 09:32:16;;;;;;;9.97;6.43;;;8.80;99.90;;;;;;5073682;28;20204;-73
2021/12/17 09:34:42;;;;;;;11.77;7.20;;;8.80;99.90;;;;;;5064433;28;20279;-72
2021/12/17 09:37:08;;;;;;;14.90;8.03;;;8.80;99.90;;;;;;5056736;28;20189;-70
2021/12/17 09:39:34;;;;;;;6.80;4.80;;;8.90;99.90;;;;;;5047171;28;20177;-71
2021/12/17 09:41:59;;;;;;;8.53;5.77;;;8.90;99.90;;;;;;5053036;28;20208;-73
2021/12/17 09:44:25;;;;;;;10.90;5.67;;;8.90;99.90;;;;;;5105826;22;20226;-73
2021/12/17 09:46:51;;;;;;;12.33;6.93;;;8.90;99.90;;;;;;5086887;28;20184;-73
2021/12/17 09:49:18;;;;;;;26.47;6.93;;;8.90;99.90;;;;;;5093034;28;20190;-72
2021/12/17 09:51:45;;;;;;;10.17;3.77;;;8.90;99.90;;;;;;5093053;28;20188;-71
2021/12/17 09:54:11;;;;;;;9.20;6.53;;;9.00;99.90;;;;;;5092928;28;20706;-71
2021/12/17 09:56:37;;;;;;;5.37;4.67;;;9.00;99.90;;;;;;5092386;28;20681;-71
2021/12/17 09:59:03;;;;;;;8.27;5.60;;;8.90;99.90;;;;;;5092862;28;20259;-72
2021/12/17 10:01:29;;;;;;;6.17;5.03;;;9.00;99.90;;;;;;5092614;28;20190;-71
2021/12/17 10:04:12;;;;;;;10.93;5.40;;;8.90;99.90;;;;;;5092572;28;20203;-71
2021/12/17 10:06:37;;;;;;;7.50;3.47;;;8.90;99.90;;;;;;5091936;28;20537;-71
2021/12/17 10:09:03;;;;;;;5.27;4.87;;;9.00;99.90;;;;;;5092627;28;20259;-73
2021/12/17 10:11:28;;;;;;;7.93;6.20;;;9.00;99.90;;;;;;5092729;28;20651;-72
2021/12/17 10:13:54;;;;;;;10.40;6.80;;;9.00;99.90;;;;;;5092339;28;20195;-73
2021/12/17 10:16:21;;;;;;;6.17;5.53;;;9.00;99.90;;;;;;5092126;28;20179;-73
2021/12/17 10:18:49;;;;;;;12.17;8.23;;;9.00;99.90;;;;;;5074128;28;20180;-73
2021/12/17 10:21:22;;;;;;;7.30;5.77;;;9.10;99.90;;;;;;5092567;28;20204;-71
2021/12/17 10:23:49;;;;;;;7.00;5.10;;;9.00;99.90;;;;;;5091071;28;20634;-71
2021/12/17 10:26:17;;;;;;;9.37;7.43;;;9.00;99.90;;;;;;5073407;28;20246;-71
2021/12/17 10:28:56;;;;;;;13.13;8.00;;;9.00;99.90;;;;;;5074618;28;20602;-71
2021/12/17 10:31:23;;;;;;;8.70;6.27;;;9.00;99.90;;;;;;5091939;28;20705;-70
2021/12/17 10:33:50;;;;;;;12.27;4.27;;;9.10;99.90;;;;;;5092139;28;20203;-70
2021/12/17 10:36:16;;;;;;;13.83;5.77;;;9.00;99.90;;;;;;5091803;28;20176;-71
2021/12/17 10:38:44;;;;;;;6.00;3.87;;;9.00;99.90;;;;;;5090399;28;20208;-71
2021/12/17 10:41:14;;;;;;;4.93;4.67;;;9.00;99.90;;;;;;5071483;28;20185;-72
2021/12/17 10:43:49;;;;;;;6.13;5.60;;;9.10;99.90;;;;;;5087543;28;20207;-73
2021/12/17 10:46:27;;;;;;;6.20;5.60;;;9.10;99.90;;;;;;5067225;28;20270;-71
2021/12/17 10:49:12;;;;;;;10.20;7.27;;;9.00;99.90;;;;;;5064426;28;20270;-71
2021/12/17 10:54:06;;;;;;;11.33;5.90;;;9.00;99.90;;;;;;5091950;28;20199;-71
2021/12/17 10:56:52;;;;;;;20.57;8.90;;;8.90;99.90;;;;;;5091343;28;20171;-72
2021/12/17 10:59:20;;;;;;;16.87;5.57;;;9.00;99.90;;;;;;5091928;28;20535;-71
2021/12/17 11:01:58;;;;;;;9.43;7.30;;;8.90;99.90;;;;;;5091219;28;20274;-71
2021/12/17 11:04:25;;;;;;;14.80;7.20;;;8.90;99.90;;;;;;5091602;28;20204;-72
2021/12/17 11:06:59;;;;;;;29.33;12.17;;;9.00;99.90;;;;;;5084913;28;20202;-71
2021/12/17 11:09:34;;;;;;;17.47;6.87;;;9.00;99.90;;;;;;5091316;28;20220;-71
2021/12/17 11:12:17;;;;;;;16.47;7.20;;;9.00;99.90;;;;;;5073138;28;20270;-71
2021/12/17 11:14:45;;;;;;;10.07;9.27;;;9.00;99.90;;;;;;5091233;28;20199;-71
2021/12/17 11:17:11;;;;;;;8.40;6.67;;;8.90;99.90;;;;;;5090965;28;20214;-71
2021/12/17 11:19:38;;;;;;;9.90;7.60;;;8.90;99.90;;;;;;5091435;28;20179;-72
2021/12/17 11:22:04;;;;;;;12.97;6.00;;;8.80;99.90;;;;;;5092051;28;20702;-72
2021/12/17 11:24:32;;;;;;;8.70;7.70;;;8.80;99.90;;;;;;5091239;28;20223;-72
2021/12/17 11:26:59;;;;;;;19.70;10.03;;;8.90;99.90;;;;;;5091025;28;20598;-70
2021/12/17 11:29:26;;;;;;;19.50;11.90;;;8.80;99.90;;;;;;5091332;28;20178;-69
2021/12/17 11:31:51;;;;;;;15.23;10.90;;;8.90;99.90;;;;;;5091042;28;20198;-71
2021/12/17 11:34:18;;;;;;;11.77;10.50;;;8.90;99.90;;;;;;5092257;28;20203;-71
2021/12/17 11:36:44;;;;;;;13.60;10.07;;;8.90;99.90;;;;;;5090742;28;20673;-72
2021/12/17 11:39:26;;;;;;;31.47;8.57;;;8.90;99.90;;;;;;5067795;28;20184;-70
2021/12/17 11:42:18;;;;;;;21.10;9.87;;;8.90;99.90;;;;;;5073985;28;20201;-71
2021/12/17 11:44:53;;;;;;;15.93;10.23;;;8.80;99.90;;;;;;5072811;28;20215;-72
2021/12/17 11:47:19;;;;;;;6.03;5.50;;;8.80;99.90;;;;;;5072304;28;20191;-72
2021/12/17 11:49:49;;;;;;;16.63;10.47;;;8.70;99.90;;;;;;5085585;28;20192;-72
2021/12/17 11:52:39;;;;;;;11.00;6.70;;;8.70;99.90;;;;;;5091197;28;20646;-73
2021/12/17 11:55:20;;;;;;;18.60;9.70;;;8.70;99.90;;;;;;5084823;28;20286;-72
2021/12/17 11:57:47;;;;;;;24.17;7.40;;;8.70;99.90;;;;;;5072611;28;20602;-71
2021/12/17 12:00:21;;;;;;;10.60;6.90;;;8.80;99.90;;;;;;5090947;28;20180;-73
2021/12/17 12:02:49;;;;;;;8.53;7.67;;;8.70;99.90;;;;;;5091115;28;20179;-73
2021/12/17 12:05:38;;;;;;;17.23;11.47;;;8.70;99.90;;;;;;5073042;28;20541;-73
2021/12/17 12:08:28;;;;;;;18.73;7.73;;;8.70;99.90;;;;;;5090809;28;20175;-73
2021/12/17 12:11:02;;;;;;;12.10;8.57;;;8.70;99.90;;;;;;5090949;28;20168;-73
2021/12/17 12:13:43;;;;;;;24.73;12.60;;;8.80;99.90;;;;;;5090833;28;20274;-73
2021/12/17 12:16:12;;;;;;;24.17;10.60;;;8.80;99.90;;;;;;5090660;28;20179;-73
2021/12/17 12:18:44;;;;;;;23.23;8.40;;;8.80;99.90;;;;;;5090730;28;20558;-73
2021/12/17 12:21:15;;;;;;;9.17;8.27;;;8.80;99.90;;;;;;5090754;28;20172;-73
2021/12/17 12:23:43;;;;;;;33.17;12.57;;;8.80;99.90;;;;;;5090769;28;20195;-73
2021/12/17 12:26:40;;;;;;;8.77;5.50;;;8.80;99.90;;;;;;5090558;28;20199;-73
2021/12/17 12:29:12;;;;;;;13.77;10.13;;;8.80;99.90;;;;;;5074587;28;20231;-73
2021/12/17 12:31:38;;;;;;;10.93;7.17;;;8.80;99.90;;;;;;5095078;28;20180;-73
2021/12/17 12:34:12;;;;;;;10.87;6.77;;;8.80;99.90;;;;;;5098113;28;20690;-73
2021/12/17 12:37:03;;;;;;;5.67;4.53;;;8.80;99.90;;;;;;5094688;28;20543;-72
2021/12/17 12:39:35;;;;;;;24.70;6.43;;;8.80;99.90;;;;;;5086810;28;20169;-73
2021/12/17 12:42:19;;;;;;;7.13;6.63;;;8.80;99.90;;;;;;5079277;28;20229;-73
2021/12/17 12:44:44;;;;;;;11.10;7.63;;;8.80;99.90;;;;;;5094600;28;20207;-73
2021/12/17 12:47:11;;;;;;;9.40;7.07;;;8.80;99.90;;;;;;5089345;28;20181;-73
2021/12/17 12:49:47;;;;;;;15.60;8.30;;;8.80;99.90;;;;;;5094744;28;20187;-73
2021/12/17 12:52:21;;;;;;;17.30;9.33;;;8.80;99.90;;;;;;5076239;28;20262;-74
2021/12/17 12:54:55;;;;;;;18.27;12.40;;;8.80;99.90;;;;;;5094291;28;20203;-73
2021/12/17 12:57:26;;;;;;;21.10;8.57;;;8.80;99.90;;;;;;5075767;28;20662;-73
2021/12/17 12:59:54;;;;;;;13.20;8.63;;;8.80;99.90;;;;;;5076035;28;20222;-74
2021/12/17 13:02:21;;;;;;;12.70;5.27;;;8.80;99.90;;;;;;5076131;28;20182;-73
2021/12/17 13:04:46;;;;;;;5.20;4.63;;;8.80;99.90;;;;;;5093891;28;20196;-73
2021/12/17 13:07:15;;;;;;;13.40;9.00;;;8.80;99.90;;;;;;5093948;28;20685;-73
2021/12/17 13:09:42;;;;;;;8.90;6.63;;;8.90;99.90;;;;;;5075799;28;20258;-73
2021/12/17 13:12:08;;;;;;;6.43;5.83;;;8.90;99.90;;;;;;5093918;28;20716;-73
2021/12/17 13:14:42;;;;;;;7.87;4.87;;;8.80;99.90;;;;;;5075538;28;20206;-73
2021/12/17 13:17:51;;;;;;;4.93;4.57;;;8.90;99.90;;;;;;5093857;28;20230;-72
2021/12/17 13:22:55;;;;;;;9.43;6.47;;;8.90;99.90;;;;;;5093769;28;20261;-73
2021/12/17 13:25:25;;;;;;;10.00;7.17;;;8.90;99.90;;;;;;5075590;28;20180;-73
2021/12/17 13:27:57;;;;;;;14.00;7.93;;;8.90;99.90;;;;;;5093175;28;20175;-73
2021/12/17 13:30:27;;;;;;;9.87;5.90;;;8.90;99.90;;;;;;5093564;28;20262;-71
2021/12/17 13:32:52;;;;;;;13.77;5.80;;;8.90;99.90;;;;;;5092929;28;20179;-71
2021/12/17 13:35:19;;;;;;;17.53;8.03;;;8.90;99.90;;;;;;5072667;28;20183;-73
2021/12/17 13:37:45;;;;;;;10.57;6.40;;;8.90;99.90;;;;;;5090616;28;20199;-71
2021/12/17 13:40:12;;;;;;;12.07;5.17;;;8.90;99.90;;;;;;5077360;28;20183;-71
2021/12/17 13:42:42;;;;;;;11.20;7.57;;;8.90;99.90;;;;;;5082249;28;20313;-70
2021/12/17 13:45:20;;;;;;;10.80;6.13;;;9.00;99.90;;;;;;5093329;28;20175;-71
2021/12/17 13:47:51;;;;;;;7.17;3.73;;;8.90;99.90;;;;;;5088231;28;20199;-71
2021/12/17 13:50:26;;;;;;;13.23;5.63;;;9.00;99.90;;;;;;5093300;28;20184;-70
2021/12/17 13:53:00;;;;;;;5.43;3.57;;;9.00;99.90;;;;;;5092852;28;20684;-71
2021/12/17 13:55:34;;;;;;;8.50;5.30;;;9.00;99.90;;;;;;5093143;28;20167;-71
2021/12/17 13:58:05;;;;;;;11.97;5.23;;;9.00;99.90;;;;;;5092664;28;20196;-71
2021/12/17 14:00:36;;;;;;;5.87;3.93;;;9.00;99.90;;;;;;5093108;28;20172;-71
2021/12/17 14:03:02;;;;;;;5.63;5.20;;;9.00;99.90;;;;;;5092834;28;20199;-71
2021/12/17 14:05:45;;;;;;;2.10;1.90;;;9.00;99.90;;;;;;5093186;28;20420;-71
2021/12/17 14:08:14;;;;;;;8.50;5.93;;;9.00;99.90;;;;;;5074643;28;20599;-71
2021/12/17 14:10:41;;;;;;;3.80;3.37;;;9.00;99.90;;;;;;5092934;28;20179;-71
2021/12/17 14:13:19;;;;;;;12.40;5.47;;;9.00;99.90;;;;;;5092673;28;20283;-71
2021/12/17 14:15:46;;;;;;;6.00;4.97;;;9.10;99.90;;;;;;5092432;28;20172;-69
2021/12/17 14:18:16;;;;;;;7.63;6.83;;;9.10;99.90;;;;;;5093164;28;20629;-71
2021/12/17 14:20:45;;;;;;;2.63;2.23;;;9.10;99.90;;;;;;5092667;28;20172;-71
2021/12/17 14:23:22;;;;;;;6.07;3.53;;;9.20;99.90;;;;;;5092140;28;20282;-71
2021/12/17 14:25:53;;;;;;;3.67;2.83;;;9.10;99.90;;;;;;5092085;28;20186;-69
2021/12/17 14:28:21;;;;;;;9.87;4.13;;;9.10;99.90;;;;;;5092347;28;20662;-71
2021/12/17 14:31:09;;;;;;;4.47;4.13;;;9.10;99.90;;;;;;5083405;28;20179;-71
2021/12/17 14:33:39;;;;;;;3.13;2.27;;;9.10;99.90;;;;;;5092212;28;20276;-71
2021/12/17 14:36:10;;;;;;;1.37;1.27;;;9.10;99.90;;;;;;5073567;28;20254;-70
2021/12/17 14:38:54;;;;;;;4.70;3.40;;;9.10;99.90;;;;;;5073410;28;20662;-71
2021/12/17 14:41:37;;;;;;;3.63;3.03;;;9.10;99.90;;;;;;5071946;28;20679;-71
2021/12/17 14:44:58;;;;;;;5.83;3.43;;;9.10;99.90;;;;;;5079658;28;20215;-70
2021/12/17 14:59:51;;;;;;;4.80;1.60;;;9.00;99.90;;;;;;5092013;28;20237;-71
2021/12/17 15:01:37;;;;;;;2.87;2.33;;;9.00;99.90;;;;;;5091550;28;20673;-71
2021/12/17 15:04:01;;;;;;;1.30;1.30;;;9.00;99.90;;;;;;5091389;28;20260;-71
2021/12/17 15:06:26;;;;;;;4.17;2.87;;;8.90;99.90;;;;;;5091432;28;20176;-71
2021/12/17 15:08:52;;;;;;;2.70;1.47;;;8.90;99.90;;;;;;5092009;28;20190;-71
2021/12/17 15:11:27;;;;;;;5.20;4.20;;;8.90;99.90;;;;;;5073358;28;20665;-71
2021/12/17 15:13:53;;;;;;;2.23;1.80;;;8.90;99.90;;;;;;5091584;28;20290;-71
2021/12/17 15:16:19;;;;;;;3.67;2.60;;;8.90;99.90;;;;;;5072741;28;20579;-72
2021/12/17 15:18:44;;;;;;;1.67;1.67;;;8.90;99.90;;;;;;5091774;28;20574;-71
2021/12/17 15:21:10;;;;;;;1.90;1.70;;;8.90;99.90;;;;;;5091196;28;20191;-72
2021/12/17 15:23:36;;;;;;;6.93;3.23;;;8.90;99.90;;;;;;5091549;28;20198;-71
2021/12/17 15:26:02;;;;;;;2.03;1.93;;;8.90;99.90;;;;;;5091094;28;20183;-71
2021/12/17 15:28:29;;;;;;;4.17;1.63;;;8.80;99.90;;;;;;5091362;28;20236;-71
2021/12/17 15:30:58;;;;;;;3.00;1.83;;;8.80;99.90;;;;;;5073471;28;20188;-72
2021/12/17 15:33:24;;;;;;;2.07;1.97;;;8.80;99.90;;;;;;5091466;28;20693;-71
2021/12/17 15:35:50;;;;;;;1.27;1.27;;;8.80;99.90;;;;;;5091233;28;20179;-71
2021/12/17 15:38:16;;;;;;;3.80;1.23;;;8.80;99.90;;;;;;5091307;28;20211;-70
2021/12/17 15:40:46;;;;;;;1.77;1.70;;;8.70;99.90;;;;;;5072885;28;20630;-71
2021/12/17 15:43:13;;;;;;;0.87;0.87;;;8.80;99.90;;;;;;5093993;22;20219;-71
2021/12/17 15:45:41;;;;;;;7.03;5.33;;;8.80;99.90;;;;;;5050038;28;20196;-72
2021/12/17 15:48:08;;;;;;;2.63;2.43;;;8.80;99.90;;;;;;5056085;28;20238;-72
2021/12/17 15:50:34;;;;;;;1.63;1.53;;;8.70;99.90;;;;;;5052209;28;20181;-73
2021/12/17 15:53:00;;;;;;;2.83;1.50;;;8.70;99.90;;;;;;5050959;28;20203;-73
2021/12/17 15:55:28;;;;;;;1.10;1.10;;;8.70;99.90;;;;;;5052228;28;20212;-72
2021/12/17 15:57:54;;;;;;;2.17;1.60;;;8.70;99.90;;;;;;5052366;28;20200;-73
2021/12/17 16:00:23;;;;;;;3.60;2.20;;;8.70;99.90;;;;;;5050615;28;20181;-71
2021/12/17 16:02:48;;;;;;;12.63;1.50;;;8.70;99.90;;;;;;5051890;28;20679;-73
2021/12/17 16:05:18;;;;;;;1.73;1.73;;;8.70;99.90;;;;;;5056513;28;20193;-72
2021/12/17 16:07:45;;;;;;;1.97;1.87;;;8.70;99.90;;;;;;5055947;28;20180;-72
2021/12/17 16:23:19;;;;;;;1.20;0.73;;;8.50;99.90;;;;;;5059437;28;20728;-71